Time;durP1;ratioP1;P1;durP2;ratioP2;P2;SDS_P1;SDS_P2;PMS_P1;PMS_P2;Temp;Humidity;BMP_temperature;BMP_pressure;BME280_temperature;BME280_humidity;BME280_pressure;Samples;Min_cycle;Max_cycle;Signal;HPM_P1;HPM_P2
2023/06/26 00:01:51;;;;;;;;;;;;;;;;;;5053842;28;20319;-72
2023/06/26 00:04:17;;;;;;;;;;;;;;;;;;5056319;28;20420;-71
2023/06/26 00:06:43;;;;;;;;;;;;;;;;;;5057382;28;20032;-72
2023/06/26 00:09:09;;;;;;;;;;;;;;;;;;5057117;28;20046;-71
2023/06/26 00:11:35;;;;;;;;;;;;;;;;;;5055573;28;20338;-71
2023/06/26 00:14:01;;;;;;;;;;;;;;;;;;5057099;28;19956;-71
2023/06/26 00:16:27;;;;;;;;;;;;;;;;;;5057607;28;19956;-72
2023/06/26 00:18:53;;;;;;;;;;;;;;;;;;5057003;28;20050;-71
2023/06/26 00:21:19;;;;;;;;;;;;;;;;;;5057203;28;19959;-71
2023/06/26 00:23:45;;;;;;;;;;;;;;;;;;5056841;28;19955;-71
2023/06/26 00:26:11;;;;;;;;;;;;;;;;;;5056765;28;19956;-72
2023/06/26 00:28:37;;;;;;;;;;;;;;;;;;5057060;28;19956;-72
2023/06/26 00:31:02;;;;;;;;;;;;;;;;;;5057007;28;20324;-70
2023/06/26 00:33:28;;;;;;;;;;;;;;;;;;5056677;28;20439;-70
2023/06/26 00:35:54;;;;;;;;;;;;;;;;;;5056539;28;19976;-72
2023/06/26 00:38:21;;;;;;;;;;;;;;;;;;5057149;28;20350;-70
2023/06/26 00:40:46;;;;;;;;;;;;;;;;;;5056825;28;19995;-71
2023/06/26 00:43:12;;;;;;;;;;;;;;;;;;5056512;28;19995;-71
2023/06/26 00:45:38;;;;;;;;;;;;;;;;;;5056471;28;20054;-71
2023/06/26 00:48:04;;;;;;;;;;;;;;;;;;5056602;28;19976;-72
2023/06/26 00:50:30;;;;;;;;;;;;;;;;;;5056387;28;19992;-71
2023/06/26 00:53:00;;;;;;;;;;;;;;;;;;5056897;28;19956;-72
2023/06/26 00:55:26;;;;;;;;;;;;;;;;;;5056267;28;19954;-71
2023/06/26 00:57:51;;;;;;;;;;;;;;;;;;5056777;28;20312;-72
2023/06/26 01:00:18;;;;;;;;;;;;;;;;;;5056459;28;19956;-71
2023/06/26 01:02:44;;;;;;;;;;;;;;;;;;5054644;28;20050;-71
2023/06/26 01:05:12;;;;;;;;;;;;;;;;;;5056133;28;19991;-71
2023/06/26 01:07:39;;;;;;;;;;;;;;;;;;5056007;28;19976;-71
2023/06/26 01:10:04;;;;;;;;;;;;;;;;;;5056606;28;19956;-71
2023/06/26 01:12:31;;;;;;;;;;;;;;;;;;5056283;28;19955;-70
2023/06/26 01:14:57;;;;;;;;;;;;;;;;;;5055896;28;20074;-70
2023/06/26 01:17:23;;;;;;;;;;;;;;;;;;5056423;28;20443;-71
2023/06/26 01:19:49;;;;;;;;;;;;;;;;;;5055896;28;19956;-70
2023/06/26 01:22:15;;;;;;;;;;;;;;;;;;5055810;28;20338;-71
2023/06/26 01:24:41;;;;;;;;;;;;;;;;;;5056299;28;19956;-70
2023/06/26 01:27:07;;;;;;;;;;;;;;;;;;5055914;28;20393;-71
2023/06/26 01:29:33;;;;;;;;;;;;;;;;;;5056216;28;19965;-72
2023/06/26 01:31:58;;;;;;;;;;;;;;;;;;5055868;28;19956;-71
2023/06/26 01:34:24;;;;;;;;;;;;;;;;;;5055657;28;19971;-71
2023/06/26 01:36:50;;;;;;;;;;;;;;;;;;5055523;28;20046;-71
2023/06/26 01:39:16;;;;;;;;;;;;;;;;;;5055522;28;19960;-71
2023/06/26 01:41:42;;;;;;;;;;;;;;;;;;5055710;28;19966;-71
2023/06/26 01:44:08;;;;;;;;;;;;;;;;;;5055253;28;20013;-71
2023/06/26 01:46:34;;;;;;;;;;;;;;;;;;5055248;28;20090;-71
2023/06/26 01:49:00;;;;;;;;;;;;;;;;;;5055552;28;19955;-70
2023/06/26 01:51:26;;;;;;;;;;;;;;;;;;5055512;28;19999;-71
2023/06/26 01:53:52;;;;;;;;;;;;;;;;;;5055192;28;19955;-71
2023/06/26 01:56:18;;;;;;;;;;;;;;;;;;5055407;28;19963;-71
2023/06/26 01:58:44;;;;;;;;;;;;;;;;;;5055100;28;19962;-70
2023/06/26 02:01:10;;;;;;;;;;;;;;;;;;5055071;28;20043;-72
2023/06/26 02:03:36;;;;;;;;;;;;;;;;;;5055557;28;20000;-71
2023/06/26 02:06:02;;;;;;;;;;;;;;;;;;5055006;28;19967;-70
2023/06/26 02:08:28;;;;;;;;;;;;;;;;;;5055238;28;19960;-71
2023/06/26 02:10:54;;;;;;;;;;;;;;;;;;5054840;28;20439;-70
2023/06/26 02:13:20;;;;;;;;;;;;;;;;;;5055142;28;19955;-70
2023/06/26 02:15:45;;;;;;;;;;;;;;;;;;5055053;28;20010;-71
2023/06/26 02:18:11;;;;;;;;;;;;;;;;;;5055778;28;20054;-71
2023/06/26 02:20:37;;;;;;;;;;;;;;;;;;5054662;28;19963;-71
2023/06/26 02:23:03;;;;;;;;;;;;;;;;;;5054663;28;20046;-72
2023/06/26 02:25:29;;;;;;;;;;;;;;;;;;5054454;28;19959;-71
2023/06/26 02:27:55;;;;;;;;;;;;;;;;;;5054373;28;20514;-71
2023/06/26 02:30:21;;;;;;;;;;;;;;;;;;5054472;28;19963;-72
2023/06/26 02:32:47;;;;;;;;;;;;;;;;;;5054451;28;20422;-71
2023/06/26 02:35:13;;;;;;;;;;;;;;;;;;5054341;28;19982;-71
2023/06/26 02:37:39;;;;;;;;;;;;;;;;;;5054373;28;19955;-71
2023/06/26 02:40:05;;;;;;;;;;;;;;;;;;5054328;28;20491;-71
2023/06/26 02:42:30;;;;;;;;;;;;;;;;;;5054079;28;20023;-71
2023/06/26 02:44:57;;;;;;;;;;;;;;;;;;5054529;28;19999;-71
2023/06/26 02:47:22;;;;;;;;;;;;;;;;;;5054136;28;19986;-71
2023/06/26 02:49:48;;;;;;;;;;;;;;;;;;5054131;28;19956;-71
2023/06/26 02:52:14;;;;;;;;;;;;;;;;;;5054347;28;20371;-71
2023/06/26 02:54:40;;;;;;;;;;;;;;;;;;5054043;28;19955;-71
2023/06/26 02:57:06;;;;;;;;;;;;;;;;;;5054310;28;20367;-72
2023/06/26 02:59:32;;;;;;;;;;;;;;;;;;5053929;28;20067;-71
2023/06/26 03:01:58;;;;;;;;;;;;;;;;;;5052636;28;20006;-70
2023/06/26 03:04:24;;;;;;;;;;;;;;;;;;5054478;28;19956;-72
2023/06/26 03:06:50;;;;;;;;;;;;;;;;;;5054092;28;19975;-71
2023/06/26 03:09:16;;;;;;;;;;;;;;;;;;5054131;28;19962;-71
2023/06/26 03:11:42;;;;;;;;;;;;;;;;;;5053828;28;19966;-71
2023/06/26 03:14:08;;;;;;;;;;;;;;;;;;5054104;28;19955;-71
2023/06/26 03:16:34;;;;;;;;;;;;;;;;;;5054299;28;20403;-71
2023/06/26 03:19:00;;;;;;;;;;;;;;;;;;5054016;28;19955;-71
2023/06/26 03:21:26;;;;;;;;;;;;;;;;;;5053688;28;20391;-70
2023/06/26 03:23:52;;;;;;;;;;;;;;;;;;5053954;28;19956;-71
2023/06/26 03:26:18;;;;;;;;;;;;;;;;;;5053529;28;19954;-71
2023/06/26 03:28:43;;;;;;;;;;;;;;;;;;5054148;28;19958;-72
2023/06/26 03:31:10;;;;;;;;;;;;;;;;;;5053860;28;19956;-71
2023/06/26 03:33:35;;;;;;;;;;;;;;;;;;5053869;28;19963;-70
2023/06/26 03:36:01;;;;;;;;;;;;;;;;;;5053441;28;20054;-71
2023/06/26 03:38:27;;;;;;;;;;;;;;;;;;5055682;28;20452;-70
2023/06/26 03:40:53;;;;;;;;;;;;;;;;;;5058043;28;19961;-71
2023/06/26 03:43:19;;;;;;;;;;;;;;;;;;5057543;28;20456;-71
2023/06/26 03:45:46;;;;;;;;;;;;;;;;;;5057881;28;19960;-70
2023/06/26 03:48:12;;;;;;;;;;;;;;;;;;5057489;28;20441;-72
2023/06/26 03:50:38;;;;;;;;;;;;;;;;;;5057534;28;20009;-71
2023/06/26 03:53:04;;;;;;;;;;;;;;;;;;5058037;28;19961;-71
2023/06/26 03:55:29;;;;;;;;;;;;;;;;;;5057707;28;20025;-71
2023/06/26 03:57:55;;;;;;;;;;;;;;;;;;5057646;28;19991;-70
2023/06/26 04:00:21;;;;;;;;;;;;;;;;;;5057330;28;19954;-71
2023/06/26 04:02:47;;;;;;;;;;;;;;;;;;5057326;28;19955;-70
2023/06/26 04:05:14;;;;;;;;;;;;;;;;;;5057532;28;20001;-71
2023/06/26 04:07:40;;;;;;;;;;;;;;;;;;5057156;28;19976;-71
2023/06/26 04:10:06;;;;;;;;;;;;;;;;;;5057171;28;19956;-71
2023/06/26 04:12:31;;;;;;;;;;;;;;;;;;5057381;28;19956;-71
2023/06/26 04:14:57;;;;;;;;;;;;;;;;;;5057334;28;19956;-70
2023/06/26 04:17:23;;;;;;;;;;;;;;;;;;5057547;28;19955;-71
2023/06/26 04:19:49;;;;;;;;;;;;;;;;;;5057548;28;19962;-70
2023/06/26 04:22:15;;;;;;;;;;;;;;;;;;5056943;28;19956;-71
2023/06/26 04:24:41;;;;;;;;;;;;;;;;;;5057157;28;19963;-71
2023/06/26 04:27:07;;;;;;;;;;;;;;;;;;5057044;28;19979;-71
2023/06/26 04:29:33;;;;;;;;;;;;;;;;;;5057072;28;20364;-71
2023/06/26 04:31:59;;;;;;;;;;;;;;;;;;5056741;28;20047;-71
2023/06/26 04:34:24;;;;;;;;;;;;;;;;;;5056788;28;19971;-71
2023/06/26 04:36:51;;;;;;;;;;;;;;;;;;5056692;28;20407;-71
2023/06/26 04:39:17;;;;;;;;;;;;;;;;;;5056641;28;20006;-70
2023/06/26 04:41:43;;;;;;;;;;;;;;;;;;5056560;28;19956;-71
2023/06/26 04:44:09;;;;;;;;;;;;;;;;;;5056552;28;19968;-71
2023/06/26 04:46:35;;;;;;;;;;;;;;;;;;5056400;28;20019;-71
2023/06/26 04:49:03;;;;;;;;;;;;;;;;;;5056004;28;20409;-71
2023/06/26 04:51:29;;;;;;;;;;;;;;;;;;5055162;28;19966;-71
2023/06/26 04:53:55;;;;;;;;;;;;;;;;;;5056318;28;19958;-71
2023/06/26 04:56:20;;;;;;;;;;;;;;;;;;5056291;28;19955;-71
2023/06/26 04:58:46;;;;;;;;;;;;;;;;;;5056528;28;20057;-70
2023/06/26 05:01:13;;;;;;;;;;;;;;;;;;5056264;28;19959;-70
2023/06/26 05:03:39;;;;;;;;;;;;;;;;;;5056463;28;19954;-71
2023/06/26 05:06:05;;;;;;;;;;;;;;;;;;5056101;28;20054;-71
2023/06/26 05:08:31;;;;;;;;;;;;;;;;;;5056316;28;19987;-70
2023/06/26 05:10:58;;;;;;;;;;;;;;;;;;5056093;28;20017;-71
2023/06/26 05:13:24;;;;;;;;;;;;;;;;;;5056019;28;20009;-70
2023/06/26 05:15:50;;;;;;;;;;;;;;;;;;5056251;28;19960;-71
2023/06/26 05:18:15;;;;;;;;;;;;;;;;;;5056728;28;19955;-72
2023/06/26 05:20:41;;;;;;;;;;;;;;;;;;5056446;28;19990;-70
2023/06/26 05:23:07;;;;;;;;;;;;;;;;;;5055804;28;20468;-71
2023/06/26 05:25:34;;;;;;;;;;;;;;;;;;5056021;28;20316;-71
2023/06/26 05:28:00;;;;;;;;;;;;;;;;;;5055574;28;19980;-72
2023/06/26 05:30:27;;;;;;;;;;;;;;;;;;5055669;28;19956;-71
2023/06/26 05:32:52;;;;;;;;;;;;;;;;;;5054091;28;19969;-71
2023/06/26 05:35:18;;;;;;;;;;;;;;;;;;5055812;28;19972;-72
2023/06/26 05:37:44;;;;;;;;;;;;;;;;;;5055788;28;20376;-72
2023/06/26 05:40:10;;;;;;;;;;;;;;;;;;5055489;28;19962;-71
2023/06/26 05:42:36;;;;;;;;;;;;;;;;;;5055222;28;19998;-72
2023/06/26 05:45:02;;;;;;;;;;;;;;;;;;5055639;28;20058;-70
2023/06/26 05:47:28;;;;;;;;;;;;;;;;;;5055565;28;20007;-70
2023/06/26 05:49:54;;;;;;;;;;;;;;;;;;5055326;28;20006;-71
2023/06/26 05:52:20;;;;;;;;;;;;;;;;;;5055792;28;19956;-70
2023/06/26 05:54:45;;;;;;;;;;;;;;;;;;5055208;28;19995;-71
2023/06/26 05:57:11;;;;;;;;;;;;;;;;;;5055672;28;19955;-72
2023/06/26 05:59:37;;;;;;;;;;;;;;;;;;5053803;28;19959;-71
2023/06/26 06:02:03;;;;;;;;;;;;;;;;;;5054231;28;19956;-70
2023/06/26 06:04:29;;;;;;;;;;;;;;;;;;5055031;28;19955;-71
2023/06/26 06:06:55;;;;;;;;;;;;;;;;;;5055097;28;20403;-72
2023/06/26 06:09:21;;;;;;;;;;;;;;;;;;5054901;28;20445;-71
2023/06/26 06:11:47;;;;;;;;;;;;;;;;;;5054870;28;19960;-71
2023/06/26 06:14:13;;;;;;;;;;;;;;;;;;5055372;28;20382;-71
2023/06/26 06:16:38;;;;;;;;;;;;;;;;;;5054760;28;20008;-72
2023/06/26 06:19:06;;;;;;;;;;;;;;;;;;5055535;28;19955;-71
2023/06/26 06:21:32;;;;;;;;;;;;;;;;;;5054690;28;19981;-71
2023/06/26 06:23:58;;;;;;;;;;;;;;;;;;5055198;28;20384;-70
2023/06/26 06:26:24;;;;;;;;;;;;;;;;;;5054804;28;19956;-72
2023/06/26 06:28:50;;;;;;;;;;;;;;;;;;5054552;28;20464;-72
2023/06/26 06:31:16;;;;;;;;;;;;;;;;;;5055072;28;19998;-72
2023/06/26 06:33:42;;;;;;;;;;;;;;;;;;5054368;28;20002;-71
2023/06/26 06:36:08;;;;;;;;;;;;;;;;;;5054990;28;19966;-71
2023/06/26 06:38:34;;;;;;;;;;;;;;;;;;5054366;28;19989;-69
2023/06/26 06:41:00;;;;;;;;;;;;;;;;;;5054647;28;19961;-69
2023/06/26 06:43:26;;;;;;;;;;;;;;;;;;5054034;28;20501;-70
2023/06/26 06:45:52;;;;;;;;;;;;;;;;;;5054266;28;19960;-69
2023/06/26 06:48:18;;;;;;;;;;;;;;;;;;5054136;28;19974;-69
2023/06/26 06:50:43;;;;;;;;;;;;;;;;;;5054495;28;19953;-69
2023/06/26 06:53:11;;;;;;;;;;;;;;;;;;5053339;28;21323;-69
2023/06/26 06:55:37;;;;;;;;;;;;;;;;;;5054137;28;19956;-69
2023/06/26 06:58:03;;;;;;;;;;;;;;;;;;5054016;28;19967;-68
2023/06/26 07:00:29;;;;;;;;;;;;;;;;;;5054556;28;19954;-68
2023/06/26 07:02:56;;;;;;;;;;;;;;;;;;5048661;28;20015;-64
2023/06/26 07:05:22;;;;;;;;;;;;;;;;;;5040575;28;19959;-65
2023/06/26 07:07:48;;;;;;;;;;;;;;;;;;5051725;28;20030;-69
2023/06/26 07:10:14;;;;;;;;;;;;;;;;;;5050535;28;19961;-58
2023/06/26 07:12:40;;;;;;;;;;;;;;;;;;5048146;28;19967;-58
2023/06/26 07:15:05;;;;;;;;;;;;;;;;;;5039124;28;19962;-57
2023/06/26 07:17:31;;;;;;;;;;;;;;;;;;5046085;28;19959;-58
2023/06/26 07:19:57;;;;;;;;;;;;;;;;;;5034807;28;20411;-55
2023/06/26 07:22:23;;;;;;;;;;;;;;;;;;5033775;28;19956;-56
2023/06/26 07:24:49;;;;;;;;;;;;;;;;;;5033533;28;19963;-57
2023/06/26 07:27:15;;;;;;;;;;;;;;;;;;5038350;28;19975;-56
2023/06/26 07:29:41;;;;;;;;;;;;;;;;;;5051615;28;19963;-56
2023/06/26 07:32:07;;;;;;;;;;;;;;;;;;5038041;28;19969;-57
2023/06/26 07:34:33;;;;;;;;;;;;;;;;;;5033727;28;19975;-56
2023/06/26 07:36:59;;;;;;;;;;;;;;;;;;5037558;28;19970;-61
2023/06/26 07:39:25;;;;;;;;;;;;;;;;;;5039901;28;19962;-63
2023/06/26 07:41:51;;;;;;;;;;;;;;;;;;5033299;28;19955;-64
2023/06/26 07:44:17;;;;;;;;;;;;;;;;;;5037221;28;20040;-65
2023/06/26 07:46:44;;;;;;;;;;;;;;;;;;5053722;28;19979;-64
2023/06/26 07:49:10;;;;;;;;;;;;;;;;;;5043565;28;20415;-65
2023/06/26 07:51:36;;;;;;;;;;;;;;;;;;5033457;28;20033;-64
2023/06/26 07:54:02;;;;;;;;;;;;;;;;;;5033332;28;19963;-60
2023/06/26 07:56:28;;;;;;;;;;;;;;;;;;5043444;28;20438;-60
2023/06/26 07:58:53;;;;;;;;;;;;;;;;;;5035158;28;19957;-59
2023/06/26 08:01:19;;;;;;;;;;;;;;;;;;5046953;28;20051;-57
2023/06/26 08:03:45;;;;;;;;;;;;;;;;;;5037144;28;20484;-59
2023/06/26 08:06:11;;;;;;;;;;;;;;;;;;5053304;28;19955;-60
2023/06/26 08:08:37;;;;;;;;;;;;;;;;;;5036686;28;20455;-61
2023/06/26 08:11:03;;;;;;;;;;;;;;;;;;5038475;28;19977;-61
2023/06/26 08:13:29;;;;;;;;;;;;;;;;;;5044661;28;19957;-61
2023/06/26 08:15:55;;;;;;;;;;;;;;;;;;5053427;28;20006;-61
2023/06/26 08:18:20;;;;;;;;;;;;;;;;;;5035378;28;20013;-61
2023/06/26 08:20:46;;;;;;;;;;;;;;;;;;5033214;28;19962;-61
2023/06/26 08:23:12;;;;;;;;;;;;;;;;;;5033470;28;19959;-61
2023/06/26 08:25:38;;;;;;;;;;;;;;;;;;5037744;28;20689;-65
2023/06/26 08:28:04;;;;;;;;;;;;;;;;;;5047622;28;20318;-65
2023/06/26 08:30:30;;;;;;;;;;;;;;;;;;5066889;28;19960;-68
2023/06/26 08:32:56;;;;;;;;;;;;;;;;;;5063561;28;19986;-63
2023/06/26 08:35:22;;;;;;;;;;;;;;;;;;5045334;28;19985;-62
2023/06/26 08:37:48;;;;;;;;;;;;;;;;;;5050871;28;20010;-63
2023/06/26 08:40:14;;;;;;;;;;;;;;;;;;5046186;28;20366;-56
2023/06/26 08:42:39;;;;;;;;;;;;;;;;;;5038557;28;19988;-59
2023/06/26 08:45:05;;;;;;;;;;;;;;;;;;5039339;28;19975;-60
2023/06/26 08:47:31;;;;;;;;;;;;;;;;;;5054607;28;20446;-59
2023/06/26 08:49:57;;;;;;;;;;;;;;;;;;5053580;28;19964;-60
2023/06/26 08:52:23;;;;;;;;;;;;;;;;;;5056431;28;20425;-61
2023/06/26 08:54:49;;;;;;;;;;;;;;;;;;5056065;28;19959;-62
2023/06/26 08:57:15;;;;;;;;;;;;;;;;;;5054239;28;19966;-60
2023/06/26 08:59:41;;;;;;;;;;;;;;;;;;5037734;28;20354;-61
2023/06/26 09:02:07;;;;;;;;;;;;;;;;;;5038657;28;20008;-63
2023/06/26 09:04:33;;;;;;;;;;;;;;;;;;5042149;28;19975;-57
2023/06/26 09:06:58;;;;;;;;;;;;;;;;;;5036141;28;19985;-58
2023/06/26 09:09:24;;;;;;;;;;;;;;;;;;5036896;28;20066;-63
2023/06/26 09:11:50;;;;;;;;;;;;;;;;;;5043480;28;19960;-58
2023/06/26 09:14:16;;;;;;;;;;;;;;;;;;5036581;28;20391;-60
2023/06/26 09:16:42;;;;;;;;;;;;;;;;;;5041129;28;19963;-58
2023/06/26 09:19:08;;;;;;;;;;;;;;;;;;5056726;28;20006;-60
2023/06/26 09:21:34;;;;;;;;;;;;;;;;;;5046075;28;20005;-58
2023/06/26 09:24:00;;;;;;;;;;;;;;;;;;5049155;28;20445;-60
2023/06/26 09:26:26;;;;;;;;;;;;;;;;;;5035827;28;19954;-56
2023/06/26 09:28:52;;;;;;;;;;;;;;;;;;5047940;28;20330;-57
2023/06/26 09:31:20;;;;;;;;;;;;;;;;;;5050596;28;19962;-56
2023/06/26 09:33:48;;;;;;;;;;;;;;;;;;5035375;28;20327;-55
2023/06/26 09:36:14;;;;;;;;;;;;;;;;;;5033960;28;19965;-57
2023/06/26 09:38:39;;;;;;;;;;;;;;;;;;5055808;28;19960;-55
2023/06/26 09:41:05;;;;;;;;;;;;;;;;;;5036448;28;19964;-58
2023/06/26 09:43:31;;;;;;;;;;;;;;;;;;5043824;28;20046;-61
2023/06/26 09:45:58;;;;;;;;;;;;;;;;;;5035483;28;19963;-59
2023/06/26 09:48:24;;;;;;;;;;;;;;;;;;5050822;28;20393;-59
2023/06/26 09:50:50;;;;;;;;;;;;;;;;;;5039052;28;19966;-59
2023/06/26 09:53:18;;;;;;;;;;;;;;;;;;5035644;28;20005;-59
2023/06/26 09:55:44;;;;;;;;;;;;;;;;;;5041636;28;19963;-60
2023/06/26 09:58:10;;;;;;;;;;;;;;;;;;5035669;28;20462;-56
2023/06/26 10:00:36;;;;;;;;;;;;;;;;;;5035957;28;19959;-57
2023/06/26 10:03:01;;;;;;;;;;;;;;;;;;5036833;28;19956;-53
2023/06/26 10:05:27;;;;;;;;;;;;;;;;;;5055279;28;19967;-53
2023/06/26 10:07:53;;;;;;;;;;;;;;;;;;5050876;28;19979;-58
2023/06/26 10:10:19;;;;;;;;;;;;;;;;;;5050679;28;19963;-55
2023/06/26 10:12:45;;;;;;;;;;;;;;;;;;5038490;28;19973;-59
2023/06/26 10:15:13;;;;;;;;;;;;;;;;;;5049246;28;20033;-57
2023/06/26 10:17:39;;;;;;;;;;;;;;;;;;5035283;28;20395;-57
2023/06/26 10:20:05;;;;;;;;;;;;;;;;;;5044980;28;20001;-66
2023/06/26 10:22:32;;;;;;;;;;;;;;;;;;5048987;28;19962;-67
2023/06/26 10:24:58;;;;;;;;;;;;;;;;;;5052165;28;20494;-64
2023/06/26 10:27:24;;;;;;;;;;;;;;;;;;5053287;28;20459;-68
2023/06/26 10:29:50;;;;;;;;;;;;;;;;;;5053838;28;20041;-65
2023/06/26 10:32:16;;;;;;;;;;;;;;;;;;5053719;28;20404;-68
2023/06/26 10:34:42;;;;;;;;;;;;;;;;;;5053846;28;19977;-68
2023/06/26 10:37:08;;;;;;;;;;;;;;;;;;5054162;28;20334;-67
2023/06/26 10:39:34;;;;;;;;;;;;;;;;;;5054731;28;20312;-67
2023/06/26 10:41:59;;;;;;;;;;;;;;;;;;5054157;28;19962;-67
2023/06/26 10:44:25;;;;;;;;;;;;;;;;;;5054637;28;19961;-67
2023/06/26 10:46:52;;;;;;;;;;;;;;;;;;5054062;28;19979;-65
2023/06/26 10:49:18;;;;;;;;;;;;;;;;;;5054266;28;19956;-66
2023/06/26 10:51:44;;;;;;;;;;;;;;;;;;5054228;28;19956;-65
2023/06/26 10:54:10;;;;;;;;;;;;;;;;;;5054412;28;19976;-71
2023/06/26 10:56:36;;;;;;;;;;;;;;;;;;5054114;28;20416;-67
2023/06/26 10:59:02;;;;;;;;;;;;;;;;;;5054280;28;19964;-65
2023/06/26 11:01:28;;;;;;;;;;;;;;;;;;5054043;28;20419;-68
2023/06/26 11:03:54;;;;;;;;;;;;;;;;;;5054541;28;20359;-66
2023/06/26 11:06:20;;;;;;;;;;;;;;;;;;5053907;28;19956;-66
2023/06/26 11:08:46;;;;;;;;;;;;;;;;;;5053786;28;20078;-66
2023/06/26 11:11:12;;;;;;;;;;;;;;;;;;5054140;28;19999;-65
2023/06/26 11:13:38;;;;;;;;;;;;;;;;;;5053827;28;19956;-65
2023/06/26 11:16:05;;;;;;;;;;;;;;;;;;5054349;28;20078;-65
2023/06/26 11:18:31;;;;;;;;;;;;;;;;;;5053052;28;20308;-67
2023/06/26 11:20:57;;;;;;;;;;;;;;;;;;5053775;28;19961;-64
2023/06/26 11:23:24;;;;;;;;;;;;;;;;;;5052417;28;19964;-65
2023/06/26 11:25:50;;;;;;;;;;;;;;;;;;5054245;28;19960;-68
2023/06/26 11:28:16;;;;;;;;;;;;;;;;;;5053626;28;19975;-66
2023/06/26 11:30:42;;;;;;;;;;;;;;;;;;5053876;28;19960;-65
2023/06/26 11:33:08;;;;;;;;;;;;;;;;;;5053882;28;19955;-66
2023/06/26 11:35:33;;;;;;;;;;;;;;;;;;5053779;28;19982;-67
2023/06/26 11:38:02;;;;;;;;;;;;;;;;;;5053551;28;19959;-66
2023/06/26 11:40:31;;;;;;;;;;;;;;;;;;5053450;28;20473;-64
2023/06/26 11:42:57;;;;;;;;;;;;;;;;;;5053134;28;19996;-65
2023/06/26 11:45:22;;;;;;;;;;;;;;;;;;5053515;28;20016;-66
2023/06/26 11:47:49;;;;;;;;;;;;;;;;;;5053691;28;20335;-65
2023/06/26 11:50:14;;;;;;;;;;;;;;;;;;5053411;28;19955;-68
2023/06/26 11:52:40;;;;;;;;;;;;;;;;;;5053695;28;19962;-66
2023/06/26 11:55:06;;;;;;;;;;;;;;;;;;5053379;28;20424;-64
2023/06/26 11:57:32;;;;;;;;;;;;;;;;;;5053557;28;19968;-66
2023/06/26 11:59:58;;;;;;;;;;;;;;;;;;5056066;28;19956;-64
2023/06/26 12:02:24;;;;;;;;;;;;;;;;;;5042093;28;19960;-64
2023/06/26 12:04:50;;;;;;;;;;;;;;;;;;5039883;28;20479;-67
2023/06/26 12:07:16;;;;;;;;;;;;;;;;;;5044729;28;20066;-66
2023/06/26 12:09:43;;;;;;;;;;;;;;;;;;5037606;28;19966;-66
2023/06/26 12:12:09;;;;;;;;;;;;;;;;;;5042845;28;20016;-63
2023/06/26 12:14:35;;;;;;;;;;;;;;;;;;5048794;28;20381;-64
2023/06/26 12:17:01;;;;;;;;;;;;;;;;;;5040706;28;20427;-65
2023/06/26 12:19:27;;;;;;;;;;;;;;;;;;5048890;28;20343;-64
2023/06/26 12:21:53;;;;;;;;;;;;;;;;;;5044078;28;20007;-64
2023/06/26 12:24:19;;;;;;;;;;;;;;;;;;5053573;28;19963;-65
2023/06/26 12:26:44;;;;;;;;;;;;;;;;;;5053581;28;19968;-68
2023/06/26 12:29:13;;;;;;;;;;;;;;;;;;5056807;28;19956;-68
2023/06/26 12:31:39;;;;;;;;;;;;;;;;;;5046506;28;19960;-71
2023/06/26 12:34:05;;;;;;;;;;;;;;;;;;5042057;28;19980;-64
2023/06/26 12:36:31;;;;;;;;;;;;;;;;;;5047223;28;20053;-70
2023/06/26 12:38:57;;;;;;;;;;;;;;;;;;5054438;28;19964;-71
2023/06/26 12:41:23;;;;;;;;;;;;;;;;;;5055177;28;19967;-68
2023/06/26 12:43:49;;;;;;;;;;;;;;;;;;5036120;28;19984;-66
2023/06/26 12:46:15;;;;;;;;;;;;;;;;;;5036607;28;19956;-62
2023/06/26 12:48:43;;;;;;;;;;;;;;;;;;5045276;28;20032;-65
2023/06/26 12:51:09;;;;;;;;;;;;;;;;;;5056769;28;19999;-65
2023/06/26 12:53:35;;;;;;;;;;;;;;;;;;5049596;28;20452;-65
2023/06/26 12:56:01;;;;;;;;;;;;;;;;;;5038137;28;20036;-65
2023/06/26 12:58:27;;;;;;;;;;;;;;;;;;5056231;28;20435;-66
2023/06/26 13:00:53;;;;;;;;;;;;;;;;;;5055639;28;19964;-64
2023/06/26 13:03:20;;;;;;;;;;;;;;;;;;5054628;28;20049;-64
2023/06/26 13:05:47;;;;;;;;;;;;;;;;;;5035966;28;19971;-63
2023/06/26 13:08:13;;;;;;;;;;;;;;;;;;5037015;28;20302;-64
2023/06/26 13:10:39;;;;;;;;;;;;;;;;;;5036074;28;19999;-65
2023/06/26 13:13:05;;;;;;;;;;;;;;;;;;5039339;28;19964;-66
2023/06/26 13:15:32;;;;;;;;;;;;;;;;;;5056278;28;19956;-65
2023/06/26 13:17:58;;;;;;;;;;;;;;;;;;5053618;28;20007;-70
2023/06/26 13:20:23;;;;;;;;;;;;;;;;;;5037136;28;19967;-67
2023/06/26 13:22:49;;;;;;;;;;;;;;;;;;5042199;28;20049;-64
2023/06/26 13:25:15;;;;;;;;;;;;;;;;;;5055667;28;19961;-64
2023/06/26 13:27:41;;;;;;;;;;;;;;;;;;5042226;28;20006;-63
2023/06/26 13:30:07;;;;;;;;;;;;;;;;;;5035169;28;19955;-63
2023/06/26 13:32:33;;;;;;;;;;;;;;;;;;5042148;28;20472;-65
2023/06/26 13:34:59;;;;;;;;;;;;;;;;;;5035736;28;19980;-64
2023/06/26 13:37:25;;;;;;;;;;;;;;;;;;5039537;28;20336;-62
2023/06/26 13:39:51;;;;;;;;;;;;;;;;;;5048801;28;19967;-64
2023/06/26 13:42:17;;;;;;;;;;;;;;;;;;5036154;28;20345;-68
2023/06/26 13:44:43;;;;;;;;;;;;;;;;;;5045161;28;20044;-67
2023/06/26 13:47:09;;;;;;;;;;;;;;;;;;5055647;28;20114;-68
2023/06/26 13:49:34;;;;;;;;;;;;;;;;;;5048190;28;20411;-72
2023/06/26 13:52:01;;;;;;;;;;;;;;;;;;5035224;28;20332;-71
2023/06/26 13:54:27;;;;;;;;;;;;;;;;;;5036279;28;19956;-74
2023/06/26 13:56:57;;;;;;;;;;;;;;;;;;5041569;28;19962;-65
2023/06/26 13:59:25;;;;;;;;;;;;;;;;;;5040943;28;19968;-64
2023/06/26 14:01:51;;;;;;;;;;;;;;;;;;5033715;28;20075;-65
2023/06/26 14:04:17;;;;;;;;;;;;;;;;;;5035161;28;20424;-65
2023/06/26 14:06:42;;;;;;;;;;;;;;;;;;5035105;28;19956;-63
2023/06/26 14:09:08;;;;;;;;;;;;;;;;;;5036569;28;20387;-67
2023/06/26 14:11:34;;;;;;;;;;;;;;;;;;5034315;28;19998;-67
2023/06/26 14:14:00;;;;;;;;;;;;;;;;;;5049102;28;19962;-62
2023/06/26 14:16:28;;;;;;;;;;;;;;;;;;5044440;28;19964;-67
2023/06/26 14:18:54;;;;;;;;;;;;;;;;;;5052969;28;20305;-67
2023/06/26 14:21:20;;;;;;;;;;;;;;;;;;5037951;28;19970;-66
2023/06/26 14:23:46;;;;;;;;;;;;;;;;;;5038397;28;19959;-64
2023/06/26 14:26:12;;;;;;;;;;;;;;;;;;5050632;28;19959;-63
2023/06/26 14:28:38;;;;;;;;;;;;;;;;;;5054423;28;19985;-62
2023/06/26 14:31:03;;;;;;;;;;;;;;;;;;5054590;28;19961;-64
2023/06/26 14:33:29;;;;;;;;;;;;;;;;;;5054826;28;19999;-65
2023/06/26 14:35:55;;;;;;;;;;;;;;;;;;5054728;28;20017;-62
2023/06/26 14:38:21;;;;;;;;;;;;;;;;;;5054424;28;20025;-60
2023/06/26 14:40:47;;;;;;;;;;;;;;;;;;5054404;28;19961;-63
2023/06/26 14:43:13;;;;;;;;;;;;;;;;;;5054202;28;20017;-62
2023/06/26 14:45:39;;;;;;;;;;;;;;;;;;5054318;28;20423;-64
2023/06/26 14:48:05;;;;;;;;;;;;;;;;;;5054393;28;20069;-63
2023/06/26 14:50:31;;;;;;;;;;;;;;;;;;5053092;28;20053;-62
2023/06/26 14:52:56;;;;;;;;;;;;;;;;;;5052542;28;19954;-63
2023/06/26 14:55:22;;;;;;;;;;;;;;;;;;5053298;28;19959;-62
2023/06/26 14:57:48;;;;;;;;;;;;;;;;;;5052522;28;19962;-62
2023/06/26 15:00:14;;;;;;;;;;;;;;;;;;5053845;28;19955;-61
2023/06/26 15:02:41;;;;;;;;;;;;;;;;;;5052433;28;19964;-63
2023/06/26 15:05:07;;;;;;;;;;;;;;;;;;5053903;28;19958;-65
2023/06/26 15:07:33;;;;;;;;;;;;;;;;;;5053864;28;20121;-65
2023/06/26 15:09:59;;;;;;;;;;;;;;;;;;5054469;28;20410;-62
2023/06/26 15:12:25;;;;;;;;;;;;;;;;;;5054132;28;19961;-64
2023/06/26 15:14:51;;;;;;;;;;;;;;;;;;5054102;28;20477;-62
2023/06/26 15:17:17;;;;;;;;;;;;;;;;;;5053795;28;19972;-63
2023/06/26 15:19:43;;;;;;;;;;;;;;;;;;5054575;28;20538;-63
2023/06/26 15:22:09;;;;;;;;;;;;;;;;;;5054274;28;19962;-63
2023/06/26 15:24:35;;;;;;;;;;;;;;;;;;5053724;28;19963;-63
2023/06/26 15:27:01;;;;;;;;;;;;;;;;;;5053633;28;20450;-62
2023/06/26 15:29:27;;;;;;;;;;;;;;;;;;5053929;28;19955;-60
2023/06/26 15:31:53;;;;;;;;;;;;;;;;;;5052125;28;20013;-62
2023/06/26 15:34:19;;;;;;;;;;;;;;;;;;5053492;28;19971;-61
2023/06/26 15:36:45;;;;;;;;;;;;;;;;;;5053824;28;20059;-64
2023/06/26 15:39:11;;;;;;;;;;;;;;;;;;5053542;28;20331;-61
2023/06/26 15:41:37;;;;;;;;;;;;;;;;;;5054061;28;20315;-64
2023/06/26 15:44:03;;;;;;;;;;;;;;;;;;5053080;28;20002;-64
2023/06/26 15:46:29;;;;;;;;;;;;;;;;;;5053724;28;19960;-63
2023/06/26 15:48:55;;;;;;;;;;;;;;;;;;5053398;28;19982;-65
2023/06/26 15:51:21;;;;;;;;;;;;;;;;;;5053470;28;20091;-63
2023/06/26 15:53:47;;;;;;;;;;;;;;;;;;5053720;28;19979;-64
2023/06/26 15:56:13;;;;;;;;;;;;;;;;;;5053681;28;20430;-64
2023/06/26 15:58:44;;;;;;;;;;;;;;;;;;5053918;28;19990;-64
2023/06/26 16:01:11;;;;;;;;;;;;;;;;;;5053353;28;19956;-62
2023/06/26 16:03:36;;;;;;;;;;;;;;;;;;5053567;28;19960;-62
2023/06/26 16:06:02;;;;;;;;;;;;;;;;;;5053617;28;19955;-64
2023/06/26 16:08:29;;;;;;;;;;;;;;;;;;5053213;28;20478;-62
2023/06/26 16:10:55;;;;;;;;;;;;;;;;;;5053579;28;19963;-64
2023/06/26 16:13:21;;;;;;;;;;;;;;;;;;5053277;28;19963;-62
2023/06/26 16:15:47;;;;;;;;;;;;;;;;;;5053229;28;19956;-65
2023/06/26 16:18:13;;;;;;;;;;;;;;;;;;5053748;28;20384;-65
2023/06/26 16:20:39;;;;;;;;;;;;;;;;;;5053975;28;19956;-63
2023/06/26 16:23:05;;;;;;;;;;;;;;;;;;5053105;28;19959;-63
2023/06/26 16:25:31;;;;;;;;;;;;;;;;;;5053167;28;20006;-62
2023/06/26 16:27:57;;;;;;;;;;;;;;;;;;5053072;28;19997;-61
2023/06/26 16:30:23;;;;;;;;;;;;;;;;;;5053708;28;20033;-63
2023/06/26 16:32:49;;;;;;;;;;;;;;;;;;5051840;28;19959;-62
2023/06/26 16:35:15;;;;;;;;;;;;;;;;;;5053068;28;19977;-63
2023/06/26 16:37:41;;;;;;;;;;;;;;;;;;5053013;28;19954;-63